sensor_id;sensor_type;location;lat;lon;timestamp;pressure;altitude;pressure_sealevel;temperature
12234;BMP180;6179;51.748;8.728;2023-04-12T00:05:23;108418.00;;;222.90
12234;BMP180;6179;51.748;8.728;2023-04-12T00:11:29;108413.00;;;222.90
12234;BMP180;6179;51.748;8.728;2023-04-12T00:17:31;108419.00;;;222.90
12234;BMP180;6179;51.748;8.728;2023-04-12T00:23:31;108422.00;;;222.90
12234;BMP180;6179;51.748;8.728;2023-04-12T00:29:33;230388.00;;;222.90
12234;BMP180;6179;51.748;8.728;2023-04-12T00:35:34;108419.00;;;222.90
12234;BMP180;6179;51.748;8.728;2023-04-12T00:41:38;230388.00;;;222.90
12234;BMP180;6179;51.748;8.728;2023-04-12T00:47:40;230388.00;;;222.90
12234;BMP180;6179;51.748;8.728;2023-04-12T00:53:42;230388.00;;;222.90
12234;BMP180;6179;51.748;8.728;2023-04-12T00:59:43;108416.00;;;222.90
12234;BMP180;6179;51.748;8.728;2023-04-12T01:25:55;108412.00;;;222.90
12234;BMP180;6179;51.748;8.728;2023-04-12T01:32:00;230388.00;;;222.90
12234;BMP180;6179;51.748;8.728;2023-04-12T01:38:03;230388.00;;;222.90
12234;BMP180;6179;51.748;8.728;2023-04-12T01:44:03;230388.00;;;222.90
12234;BMP180;6179;51.748;8.728;2023-04-12T01:50:53;230388.00;;;222.90
12234;BMP180;6179;51.748;8.728;2023-04-12T01:56:49;230388.00;;;222.90
12234;BMP180;6179;51.748;8.728;2023-04-12T02:02:54;108415.00;;;222.90
12234;BMP180;6179;51.748;8.728;2023-04-12T02:09:01;108415.00;;;222.90
12234;BMP180;6179;51.748;8.728;2023-04-12T02:15:02;108414.00;;;222.90
12234;BMP180;6179;51.748;8.728;2023-04-12T02:21:07;230388.00;;;222.90
12234;BMP180;6179;51.748;8.728;2023-04-12T02:27:08;230388.00;;;222.90
12234;BMP180;6179;51.748;8.728;2023-04-12T02:33:09;230388.00;;;222.90
12234;BMP180;6179;51.748;8.728;2023-04-12T02:39:11;230388.00;;;222.90
12234;BMP180;6179;51.748;8.728;2023-04-12T02:45:11;108413.00;;;222.90
12234;BMP180;6179;51.748;8.728;2023-04-12T02:51:12;108417.00;;;222.90
12234;BMP180;6179;51.748;8.728;2023-04-12T02:57:13;108419.00;;;222.90
12234;BMP180;6179;51.748;8.728;2023-04-12T03:03:15;108417.00;;;222.90
12234;BMP180;6179;51.748;8.728;2023-04-12T03:09:18;108415.00;;;222.90
12234;BMP180;6179;51.748;8.728;2023-04-12T03:15:18;108416.00;;;222.90
12234;BMP180;6179;51.748;8.728;2023-04-12T03:21:22;108418.00;;;222.90
12234;BMP180;6179;51.748;8.728;2023-04-12T03:27:23;108418.00;;;222.90
12234;BMP180;6179;51.748;8.728;2023-04-12T03:33:26;108422.00;;;222.90
12234;BMP180;6179;51.748;8.728;2023-04-12T03:39:27;108417.00;;;222.90
12234;BMP180;6179;51.748;8.728;2023-04-12T03:45:28;108416.00;;;222.90
12234;BMP180;6179;51.748;8.728;2023-04-12T03:51:29;108416.00;;;222.90
12234;BMP180;6179;51.748;8.728;2023-04-12T03:57:30;108417.00;;;222.90
12234;BMP180;6179;51.748;8.728;2023-04-12T04:03:32;108413.00;;;222.90
12234;BMP180;6179;51.748;8.728;2023-04-12T04:09:34;108418.00;;;222.90
12234;BMP180;6179;51.748;8.728;2023-04-12T04:15:35;108420.00;;;222.90
12234;BMP180;6179;51.748;8.728;2023-04-12T04:21:36;108423.00;;;222.90
12234;BMP180;6179;51.748;8.728;2023-04-12T04:27:36;108413.00;;;222.90
12234;BMP180;6179;51.748;8.728;2023-04-12T04:33:38;108417.00;;;222.90
12234;BMP180;6179;51.748;8.728;2023-04-12T04:39:39;108423.00;;;222.90
12234;BMP180;6179;51.748;8.728;2023-04-12T04:45:40;108418.00;;;222.90
12234;BMP180;6179;51.748;8.728;2023-04-12T04:51:40;108415.00;;;222.90
12234;BMP180;6179;51.748;8.728;2023-04-12T04:57:41;108417.00;;;222.90
12234;BMP180;6179;51.748;8.728;2023-04-12T05:03:43;108417.00;;;222.90
12234;BMP180;6179;51.748;8.728;2023-04-12T05:09:49;108423.00;;;222.90
12234;BMP180;6179;51.748;8.728;2023-04-12T05:15:50;108420.00;;;222.90
12234;BMP180;6179;51.748;8.728;2023-04-12T05:21:50;108422.00;;;222.90
12234;BMP180;6179;51.748;8.728;2023-04-12T05:27:51;108415.00;;;222.90
12234;BMP180;6179;51.748;8.728;2023-04-12T05:33:52;108416.00;;;222.90
12234;BMP180;6179;51.748;8.728;2023-04-12T05:39:54;108414.00;;;222.90
12234;BMP180;6179;51.748;8.728;2023-04-12T05:45:54;108415.00;;;222.90
12234;BMP180;6179;51.748;8.728;2023-04-12T05:51:56;108416.00;;;222.90
12234;BMP180;6179;51.748;8.728;2023-04-12T05:57:56;108421.00;;;222.90
12234;BMP180;6179;51.748;8.728;2023-04-12T06:04:01;108422.00;;;222.90
12234;BMP180;6179;51.748;8.728;2023-04-12T06:10:03;108420.00;;;222.90
12234;BMP180;6179;51.748;8.728;2023-04-12T06:16:05;108417.00;;;222.90
12234;BMP180;6179;51.748;8.728;2023-04-12T06:22:06;108417.00;;;222.90
12234;BMP180;6179;51.748;8.728;2023-04-12T06:28:06;108418.00;;;222.90
12234;BMP180;6179;51.748;8.728;2023-04-12T06:34:07;108416.00;;;222.90
12234;BMP180;6179;51.748;8.728;2023-04-12T06:40:08;108419.00;;;222.90
12234;BMP180;6179;51.748;8.728;2023-04-12T06:46:09;108420.00;;;222.90
12234;BMP180;6179;51.748;8.728;2023-04-12T06:52:10;108415.00;;;222.90
12234;BMP180;6179;51.748;8.728;2023-04-12T06:58:11;108419.00;;;222.90
12234;BMP180;6179;51.748;8.728;2023-04-12T07:04:11;108421.00;;;222.90
12234;BMP180;6179;51.748;8.728;2023-04-12T07:10:12;108419.00;;;222.90
12234;BMP180;6179;51.748;8.728;2023-04-12T07:16:13;108416.00;;;222.90
12234;BMP180;6179;51.748;8.728;2023-04-12T07:22:14;108418.00;;;222.90
12234;BMP180;6179;51.748;8.728;2023-04-12T07:28:14;108419.00;;;222.90
12234;BMP180;6179;51.748;8.728;2023-04-12T07:34:15;108420.00;;;222.90
12234;BMP180;6179;51.748;8.728;2023-04-12T07:40:16;108419.00;;;222.90
12234;BMP180;6179;51.748;8.728;2023-04-12T07:46:17;108417.00;;;222.90
12234;BMP180;6179;51.748;8.728;2023-04-12T07:52:18;108412.00;;;222.90
12234;BMP180;6179;51.748;8.728;2023-04-12T07:58:21;108420.00;;;222.90
12234;BMP180;6179;51.748;8.728;2023-04-12T08:04:22;108414.00;;;222.90
12234;BMP180;6179;51.748;8.728;2023-04-12T08:10:23;108417.00;;;222.90
12234;BMP180;6179;51.748;8.728;2023-04-12T08:16:24;108415.00;;;222.90
12234;BMP180;6179;51.748;8.728;2023-04-12T08:22:26;108414.00;;;222.90
12234;BMP180;6179;51.748;8.728;2023-04-12T08:28:29;108414.00;;;222.90
12234;BMP180;6179;51.748;8.728;2023-04-12T08:34:30;108414.00;;;222.90
12234;BMP180;6179;51.748;8.728;2023-04-12T08:40:32;108413.00;;;222.90
12234;BMP180;6179;51.748;8.728;2023-04-12T08:46:35;108412.00;;;222.90
12234;BMP180;6179;51.748;8.728;2023-04-12T08:52:37;108422.00;;;222.90
12234;BMP180;6179;51.748;8.728;2023-04-12T08:58:40;108419.00;;;222.90
12234;BMP180;6179;51.748;8.728;2023-04-12T09:04:48;108418.00;;;222.90
12234;BMP180;6179;51.748;8.728;2023-04-12T09:10:49;108418.00;;;222.90
12234;BMP180;6179;51.748;8.728;2023-04-12T09:30:18;230388.00;;;222.90
12234;BMP180;6179;51.748;8.728;2023-04-12T09:36:19;108419.00;;;222.90
12234;BMP180;6179;51.748;8.728;2023-04-12T09:42:20;108414.00;;;222.90
12234;BMP180;6179;51.748;8.728;2023-04-12T09:48:21;230388.00;;;222.90
12234;BMP180;6179;51.748;8.728;2023-04-12T09:54:23;230388.00;;;222.90
12234;BMP180;6179;51.748;8.728;2023-04-12T10:00:24;230388.00;;;222.90
12234;BMP180;6179;51.748;8.728;2023-04-12T10:06:26;230388.00;;;222.90
12234;BMP180;6179;51.748;8.728;2023-04-12T10:12:27;230388.00;;;222.90
12234;BMP180;6179;51.748;8.728;2023-04-12T10:18:30;230388.00;;;222.90
12234;BMP180;6179;51.748;8.728;2023-04-12T10:24:31;108417.00;;;222.90
12234;BMP180;6179;51.748;8.728;2023-04-12T10:30:32;230388.00;;;222.90
12234;BMP180;6179;51.748;8.728;2023-04-12T10:37:02;230388.00;;;222.90
12234;BMP180;6179;51.748;8.728;2023-04-12T10:49:22;230388.00;;;222.90
12234;BMP180;6179;51.748;8.728;2023-04-12T10:55:27;230388.00;;;222.90
12234;BMP180;6179;51.748;8.728;2023-04-12T11:01:30;230388.00;;;222.90
12234;BMP180;6179;51.748;8.728;2023-04-12T11:07:39;230388.00;;;222.90
12234;BMP180;6179;51.748;8.728;2023-04-12T11:13:41;230388.00;;;222.90
12234;BMP180;6179;51.748;8.728;2023-04-12T11:19:45;230388.00;;;222.90
12234;BMP180;6179;51.748;8.728;2023-04-12T11:25:50;230388.00;;;222.90
12234;BMP180;6179;51.748;8.728;2023-04-12T11:31:54;230388.00;;;222.90
12234;BMP180;6179;51.748;8.728;2023-04-12T11:37:55;230388.00;;;222.90
12234;BMP180;6179;51.748;8.728;2023-04-12T11:43:59;230388.00;;;222.90
12234;BMP180;6179;51.748;8.728;2023-04-12T11:50:00;230388.00;;;222.90
12234;BMP180;6179;51.748;8.728;2023-04-12T11:56:01;230388.00;;;222.90
12234;BMP180;6179;51.748;8.728;2023-04-12T12:02:02;230388.00;;;222.90
12234;BMP180;6179;51.748;8.728;2023-04-12T12:08:04;230388.00;;;222.90
12234;BMP180;6179;51.748;8.728;2023-04-12T12:14:07;230388.00;;;222.90
12234;BMP180;6179;51.748;8.728;2023-04-12T12:20:19;230388.00;;;222.90
12234;BMP180;6179;51.748;8.728;2023-04-12T12:26:23;230388.00;;;222.90
12234;BMP180;6179;51.748;8.728;2023-04-12T12:32:24;230388.00;;;222.90
12234;BMP180;6179;51.748;8.728;2023-04-12T12:38:34;230388.00;;;222.90
12234;BMP180;6179;51.748;8.728;2023-04-12T12:44:36;230388.00;;;222.90
12234;BMP180;6179;51.748;8.728;2023-04-12T12:50:37;230388.00;;;222.90
12234;BMP180;6179;51.748;8.728;2023-04-12T12:56:38;230388.00;;;222.90
12234;BMP180;6179;51.748;8.728;2023-04-12T13:02:43;230388.00;;;222.90
12234;BMP180;6179;51.748;8.728;2023-04-12T13:08:44;230388.00;;;222.90
12234;BMP180;6179;51.748;8.728;2023-04-12T13:14:46;230388.00;;;222.90
12234;BMP180;6179;51.748;8.728;2023-04-12T13:20:47;230388.00;;;222.90
12234;BMP180;6179;51.748;8.728;2023-04-12T13:26:48;230388.00;;;222.90
12234;BMP180;6179;51.748;8.728;2023-04-12T13:32:48;230388.00;;;222.90
12234;BMP180;6179;51.748;8.728;2023-04-12T13:38:49;230388.00;;;222.90
12234;BMP180;6179;51.748;8.728;2023-04-12T13:44:50;230388.00;;;222.90
12234;BMP180;6179;51.748;8.728;2023-04-12T13:50:54;230388.00;;;222.90
12234;BMP180;6179;51.748;8.728;2023-04-12T13:56:55;230388.00;;;222.90
12234;BMP180;6179;51.748;8.728;2023-04-12T14:02:57;230388.00;;;222.90
12234;BMP180;6179;51.748;8.728;2023-04-12T14:08:59;230388.00;;;222.90
12234;BMP180;6179;51.748;8.728;2023-04-12T14:15:00;230388.00;;;222.90
12234;BMP180;6179;51.748;8.728;2023-04-12T14:21:02;230388.00;;;222.90
12234;BMP180;6179;51.748;8.728;2023-04-12T14:27:03;230388.00;;;222.90
12234;BMP180;6179;51.748;8.728;2023-04-12T14:33:04;230388.00;;;222.90
12234;BMP180;6179;51.748;8.728;2023-04-12T14:39:05;230388.00;;;222.90
12234;BMP180;6179;51.748;8.728;2023-04-12T14:45:07;230388.00;;;222.90
12234;BMP180;6179;51.748;8.728;2023-04-12T14:51:09;230388.00;;;222.90
12234;BMP180;6179;51.748;8.728;2023-04-12T14:57:10;230388.00;;;222.90
12234;BMP180;6179;51.748;8.728;2023-04-12T15:03:11;230388.00;;;222.90
12234;BMP180;6179;51.748;8.728;2023-04-12T15:09:13;230388.00;;;222.90
12234;BMP180;6179;51.748;8.728;2023-04-12T15:15:16;230388.00;;;222.90
12234;BMP180;6179;51.748;8.728;2023-04-12T15:21:17;230388.00;;;222.90
12234;BMP180;6179;51.748;8.728;2023-04-12T15:27:18;230388.00;;;222.90
12234;BMP180;6179;51.748;8.728;2023-04-12T15:33:19;230388.00;;;222.90
12234;BMP180;6179;51.748;8.728;2023-04-12T15:39:20;230388.00;;;222.90
12234;BMP180;6179;51.748;8.728;2023-04-12T15:45:21;108419.00;;;222.90
12234;BMP180;6179;51.748;8.728;2023-04-12T15:51:22;108425.00;;;222.90
12234;BMP180;6179;51.748;8.728;2023-04-12T15:57:23;108417.00;;;222.90
12234;BMP180;6179;51.748;8.728;2023-04-12T16:03:24;230388.00;;;222.90
12234;BMP180;6179;51.748;8.728;2023-04-12T16:09:26;230388.00;;;222.90
12234;BMP180;6179;51.748;8.728;2023-04-12T16:15:27;230388.00;;;222.90
12234;BMP180;6179;51.748;8.728;2023-04-12T16:21:28;108420.00;;;222.90
12234;BMP180;6179;51.748;8.728;2023-04-12T16:27:29;230388.00;;;222.90
12234;BMP180;6179;51.748;8.728;2023-04-12T16:33:30;230388.00;;;222.90
12234;BMP180;6179;51.748;8.728;2023-04-12T16:39:31;230388.00;;;222.90
12234;BMP180;6179;51.748;8.728;2023-04-12T16:45:33;230388.00;;;222.90
12234;BMP180;6179;51.748;8.728;2023-04-12T16:51:34;108418.00;;;222.90
12234;BMP180;6179;51.748;8.728;2023-04-12T16:57:35;108419.00;;;222.90
12234;BMP180;6179;51.748;8.728;2023-04-12T17:03:36;108418.00;;;222.90
12234;BMP180;6179;51.748;8.728;2023-04-12T17:09:37;108415.00;;;222.90
12234;BMP180;6179;51.748;8.728;2023-04-12T17:15:37;108419.00;;;222.90
12234;BMP180;6179;51.748;8.728;2023-04-12T17:21:40;108417.00;;;222.90
12234;BMP180;6179;51.748;8.728;2023-04-12T17:27:41;108420.00;;;222.90
12234;BMP180;6179;51.748;8.728;2023-04-12T17:33:42;108420.00;;;222.90
12234;BMP180;6179;51.748;8.728;2023-04-12T17:39:42;108417.00;;;222.90
12234;BMP180;6179;51.748;8.728;2023-04-12T17:45:43;108420.00;;;222.90
12234;BMP180;6179;51.748;8.728;2023-04-12T17:51:44;108414.00;;;222.90
12234;BMP180;6179;51.748;8.728;2023-04-12T17:57:45;230388.00;;;222.90
12234;BMP180;6179;51.748;8.728;2023-04-12T18:03:46;230388.00;;;222.90
12234;BMP180;6179;51.748;8.728;2023-04-12T18:09:47;230388.00;;;222.90
12234;BMP180;6179;51.748;8.728;2023-04-12T18:15:48;230388.00;;;222.90
12234;BMP180;6179;51.748;8.728;2023-04-12T18:21:49;230388.00;;;222.90
12234;BMP180;6179;51.748;8.728;2023-04-12T18:27:51;230388.00;;;222.90
12234;BMP180;6179;51.748;8.728;2023-04-12T18:33:52;230388.00;;;222.90
12234;BMP180;6179;51.748;8.728;2023-04-12T18:39:53;230388.00;;;222.90
12234;BMP180;6179;51.748;8.728;2023-04-12T18:45:54;230388.00;;;222.90
12234;BMP180;6179;51.748;8.728;2023-04-12T18:51:56;230388.00;;;222.90
12234;BMP180;6179;51.748;8.728;2023-04-12T18:57:59;230388.00;;;222.90
12234;BMP180;6179;51.748;8.728;2023-04-12T19:04:00;230388.00;;;222.90
12234;BMP180;6179;51.748;8.728;2023-04-12T19:10:04;230388.00;;;222.90
12234;BMP180;6179;51.748;8.728;2023-04-12T19:16:05;230388.00;;;222.90
12234;BMP180;6179;51.748;8.728;2023-04-12T19:22:08;230388.00;;;222.90
12234;BMP180;6179;51.748;8.728;2023-04-12T19:28:09;230388.00;;;222.90
12234;BMP180;6179;51.748;8.728;2023-04-12T19:34:11;230388.00;;;222.90
12234;BMP180;6179;51.748;8.728;2023-04-12T19:40:13;230388.00;;;222.90
12234;BMP180;6179;51.748;8.728;2023-04-12T19:46:14;230388.00;;;222.90
12234;BMP180;6179;51.748;8.728;2023-04-12T19:52:16;230388.00;;;222.90
12234;BMP180;6179;51.748;8.728;2023-04-12T19:58:20;230388.00;;;222.90
12234;BMP180;6179;51.748;8.728;2023-04-12T20:04:20;230388.00;;;222.90
12234;BMP180;6179;51.748;8.728;2023-04-12T20:10:23;230388.00;;;222.90
12234;BMP180;6179;51.748;8.728;2023-04-12T20:16:24;230388.00;;;222.90
12234;BMP180;6179;51.748;8.728;2023-04-12T20:22:25;230388.00;;;222.90
12234;BMP180;6179;51.748;8.728;2023-04-12T20:28:26;230388.00;;;222.90
12234;BMP180;6179;51.748;8.728;2023-04-12T20:34:28;230388.00;;;222.90
12234;BMP180;6179;51.748;8.728;2023-04-12T20:40:29;230388.00;;;222.90
12234;BMP180;6179;51.748;8.728;2023-04-12T20:46:29;230388.00;;;222.90
12234;BMP180;6179;51.748;8.728;2023-04-12T20:52:30;230388.00;;;222.90
12234;BMP180;6179;51.748;8.728;2023-04-12T20:58:31;108420.00;;;222.90
12234;BMP180;6179;51.748;8.728;2023-04-12T21:04:34;108416.00;;;222.90
12234;BMP180;6179;51.748;8.728;2023-04-12T21:10:35;108413.00;;;222.90
12234;BMP180;6179;51.748;8.728;2023-04-12T21:16:37;108420.00;;;222.90
12234;BMP180;6179;51.748;8.728;2023-04-12T21:22:42;108416.00;;;222.90
12234;BMP180;6179;51.748;8.728;2023-04-12T21:28:44;108415.00;;;222.90
12234;BMP180;6179;51.748;8.728;2023-04-12T21:34:45;108412.00;;;222.90
12234;BMP180;6179;51.748;8.728;2023-04-12T21:40:47;108411.00;;;222.90
12234;BMP180;6179;51.748;8.728;2023-04-12T21:46:48;108415.00;;;222.90
12234;BMP180;6179;51.748;8.728;2023-04-12T21:52:49;108414.00;;;222.90
12234;BMP180;6179;51.748;8.728;2023-04-12T21:58:50;108412.00;;;222.90
12234;BMP180;6179;51.748;8.728;2023-04-12T22:04:51;108417.00;;;222.90
12234;BMP180;6179;51.748;8.728;2023-04-12T22:10:52;108424.00;;;222.90
12234;BMP180;6179;51.748;8.728;2023-04-12T22:16:53;108413.00;;;222.90
12234;BMP180;6179;51.748;8.728;2023-04-12T22:22:54;108415.00;;;222.90
12234;BMP180;6179;51.748;8.728;2023-04-12T22:28:56;108415.00;;;222.90
12234;BMP180;6179;51.748;8.728;2023-04-12T22:34:57;108420.00;;;222.90
12234;BMP180;6179;51.748;8.728;2023-04-12T22:41:00;108418.00;;;222.90
12234;BMP180;6179;51.748;8.728;2023-04-12T22:47:05;108412.00;;;222.90
12234;BMP180;6179;51.748;8.728;2023-04-12T22:53:07;108413.00;;;222.90
12234;BMP180;6179;51.748;8.728;2023-04-12T22:59:08;108412.00;;;222.90
12234;BMP180;6179;51.748;8.728;2023-04-12T23:05:08;108412.00;;;222.90
12234;BMP180;6179;51.748;8.728;2023-04-12T23:11:09;108411.00;;;222.90
12234;BMP180;6179;51.748;8.728;2023-04-12T23:17:10;108414.00;;;222.90
12234;BMP180;6179;51.748;8.728;2023-04-12T23:23:12;108409.00;;;222.90
12234;BMP180;6179;51.748;8.728;2023-04-12T23:29:13;108413.00;;;222.90
12234;BMP180;6179;51.748;8.728;2023-04-12T23:35:14;108412.00;;;222.90
12234;BMP180;6179;51.748;8.728;2023-04-12T23:41:15;108416.00;;;222.90
12234;BMP180;6179;51.748;8.728;2023-04-12T23:47:15;108418.00;;;222.90
12234;BMP180;6179;51.748;8.728;2023-04-12T23:53:18;108413.00;;;222.90
12234;BMP180;6179;51.748;8.728;2023-04-12T23:59:19;108414.00;;;222.90
